createdAt,value
2022-11-29T00:02:14.200Z,9.76
2022-11-29T00:04:44.163Z,9.75
2022-11-29T00:07:14.044Z,9.76
2022-11-29T00:09:43.842Z,9.85
2022-11-29T00:12:13.646Z,9.67
2022-11-29T00:14:43.981Z,9.65
2022-11-29T00:17:13.943Z,9.54
2022-11-29T00:19:45.073Z,9.43
2022-11-29T00:22:14.797Z,9.58
2022-11-29T00:24:44.794Z,9.68
2022-11-29T00:27:14.662Z,9.68
2022-11-29T00:29:44.859Z,9.77
2022-11-29T00:32:14.669Z,9.81
2022-11-29T00:34:44.674Z,9.76
2022-11-29T00:37:14.618Z,9.83
2022-11-29T00:39:44.367Z,9.84
2022-11-29T00:42:15.483Z,9.83
2022-11-29T00:44:45.536Z,9.90
2022-11-29T00:47:15.457Z,9.75
2022-11-29T00:49:45.238Z,9.77
2022-11-29T00:52:14.823Z,9.57
2022-11-29T00:54:44.869Z,9.73
2022-11-29T00:57:14.907Z,9.79
2022-11-29T00:59:44.647Z,9.72
2022-11-29T01:02:14.296Z,9.64
2022-11-29T01:04:44.431Z,9.64
2022-11-29T01:07:14.750Z,9.59
2022-11-29T01:09:44.518Z,9.49
2022-11-29T01:12:14.400Z,9.60
2022-11-29T01:14:44.516Z,9.66
2022-11-29T01:17:14.426Z,9.69
2022-11-29T01:19:50.455Z,9.80
2022-11-29T01:22:15.368Z,9.73
2022-11-29T01:24:45.298Z,9.78
2022-11-29T01:27:15.575Z,9.63
2022-11-29T01:29:45.371Z,9.61
2022-11-29T01:32:15.218Z,9.67
2022-11-29T01:34:45.285Z,9.67
2022-11-29T01:37:15.485Z,9.70
2022-11-29T01:39:45.239Z,9.64
2022-11-29T01:42:15.132Z,9.68
2022-11-29T01:45:05.621Z,9.73
2022-11-29T01:47:36.867Z,9.74
2022-11-29T01:50:09.855Z,9.73
2022-11-29T01:52:40.025Z,9.81
2022-11-29T01:55:11.117Z,9.71
2022-11-29T01:57:42.571Z,9.67
2022-11-29T02:00:17.684Z,9.78
2022-11-29T02:03:01.826Z,9.82
2022-11-29T02:05:32.700Z,9.83
2022-11-29T02:08:02.992Z,9.87
2022-11-29T02:10:35.763Z,9.83
2022-11-29T02:13:29.384Z,10.02
2022-11-29T02:16:07.857Z,9.99
2022-11-29T02:18:48.857Z,9.86
2022-11-29T02:21:33.628Z,9.75
2022-11-29T02:24:07.306Z,9.79
2022-11-29T02:26:59.109Z,9.88
2022-11-29T02:29:52.620Z,9.77
2022-11-29T02:32:53.446Z,9.77
2022-11-29T02:35:31.850Z,9.90
2022-11-29T02:38:36.977Z,9.82
2022-11-29T02:41:30.349Z,9.81
2022-11-29T02:44:20.800Z,9.71
2022-11-29T02:47:28.166Z,9.66
2022-11-29T02:50:21.919Z,9.75
2022-11-29T02:53:16.812Z,9.84
2022-11-29T02:55:55.285Z,9.65
2022-11-29T02:58:27.794Z,9.88
2022-11-29T03:01:00.693Z,9.75
2022-11-29T03:03:36.636Z,10.07
2022-11-29T03:06:29.463Z,9.88
2022-11-29T03:09:02.261Z,9.78
2022-11-29T03:11:40.891Z,9.84
2022-11-29T03:14:24.937Z,9.88
2022-11-29T03:17:06.429Z,9.77
2022-11-29T03:19:57.195Z,9.77
2022-11-29T03:25:25.968Z,9.99
2022-11-29T03:28:02.093Z,9.67
2022-11-29T03:30:35.275Z,9.82
2022-11-29T03:33:08.060Z,9.89
2022-11-29T03:35:46.562Z,9.88
2022-11-29T03:38:35.608Z,9.81
2022-11-29T03:41:19.716Z,9.76
2022-11-29T03:43:55.626Z,9.89
2022-11-29T03:46:28.141Z,9.98
2022-11-29T03:49:06.890Z,9.80
2022-11-29T03:52:12.443Z,9.72
2022-11-29T03:55:03.177Z,9.69
2022-11-29T03:57:41.873Z,9.62
2022-11-29T04:00:15.044Z,9.57
2022-11-29T04:03:00.901Z,9.60
2022-11-29T04:05:58.813Z,9.57
2022-11-29T04:08:52.447Z,9.57
2022-11-29T04:11:30.391Z,9.72
2022-11-29T04:14:34.855Z,9.74
2022-11-29T04:17:22.374Z,9.75
2022-11-29T04:20:28.113Z,9.71
2022-11-29T04:23:22.868Z,9.78
2022-11-29T04:26:22.135Z,9.88
2022-11-29T04:29:06.571Z,9.74
2022-11-29T04:31:53.991Z,9.68
2022-11-29T04:34:44.990Z,9.86
2022-11-29T04:37:23.896Z,9.63
2022-11-29T04:40:18.690Z,9.69
2022-11-29T04:43:18.475Z,9.65
2022-11-29T04:45:50.956Z,9.68
2022-11-29T04:48:29.309Z,9.67
2022-11-29T04:51:10.651Z,9.60
2022-11-29T04:54:14.991Z,9.72
2022-11-29T04:56:50.393Z,9.65
2022-11-29T04:59:28.730Z,9.64
2022-11-29T05:02:04.282Z,9.56
2022-11-29T05:04:37.043Z,9.65
2022-11-29T05:07:42.868Z,9.56
2022-11-29T05:10:42.058Z,9.51
2022-11-29T05:13:31.032Z,9.38
2022-11-29T05:16:03.883Z,9.49
2022-11-29T05:18:59.079Z,9.49
2022-11-29T05:21:46.587Z,9.51
2022-11-29T05:27:18.533Z,9.42
2022-11-29T05:29:51.616Z,9.40
2022-11-29T05:32:32.952Z,9.55
2022-11-29T05:35:10.732Z,9.63
2022-11-29T05:37:43.901Z,9.57
2022-11-29T05:40:34.522Z,9.46
2022-11-29T05:43:09.876Z,9.57
2022-11-29T05:45:57.675Z,9.45
2022-11-29T05:49:01.659Z,9.16
2022-11-29T05:51:43.322Z,9.20
2022-11-29T05:54:39.847Z,9.40
2022-11-29T05:57:29.036Z,9.25
2022-11-29T06:00:01.489Z,9.22
2022-11-29T06:02:56.798Z,9.29
2022-11-29T06:05:32.315Z,9.29
2022-11-29T06:08:24.590Z,9.19
2022-11-29T06:13:51.776Z,9.22
2022-11-29T06:16:58.460Z,9.22
2022-11-29T06:19:39.423Z,9.32
2022-11-29T06:22:25.787Z,9.14
2022-11-29T06:25:17.322Z,9.16
2022-11-29T06:28:05.167Z,9.08
2022-11-29T06:30:38.237Z,9.09
2022-11-29T06:33:17.045Z,9.33
2022-11-29T06:36:07.516Z,9.25
2022-11-29T06:38:37.385Z,9.25
2022-11-29T06:41:07.849Z,9.28
2022-11-29T06:43:37.880Z,9.37
2022-11-29T06:46:27.695Z,9.28
2022-11-29T06:49:15.035Z,9.26
2022-11-29T06:52:08.833Z,9.09
2022-11-29T06:54:56.238Z,9.13
2022-11-29T06:57:49.419Z,9.04
2022-11-29T07:00:25.595Z,9.04
2022-11-29T07:03:23.986Z,8.97
2022-11-29T07:05:53.957Z,9.05
2022-11-29T07:08:25.380Z,9.18
2022-11-29T07:10:56.031Z,8.93
2022-11-29T07:13:26.012Z,8.93
2022-11-29T07:16:01.306Z,8.89
2022-11-29T07:19:00.871Z,8.99
2022-11-29T07:21:42.264Z,9.12
2022-11-29T07:24:45.762Z,9.22
2022-11-29T07:27:38.031Z,9.09
2022-11-29T07:30:14.819Z,9.16
2022-11-29T07:33:00.364Z,9.23
2022-11-29T07:35:39.129Z,9.08
2022-11-29T07:38:26.609Z,9.17
2022-11-29T07:41:20.246Z,9.16
2022-11-29T07:44:07.907Z,9.01
2022-11-29T07:46:37.712Z,9.18
2022-11-29T07:49:09.025Z,9.17
2022-11-29T07:51:39.134Z,9.02
2022-11-29T07:54:13.297Z,9.06
2022-11-29T07:56:42.753Z,8.82
2022-11-29T07:59:12.888Z,8.98
2022-11-29T08:01:43.120Z,9.00
2022-11-29T08:04:13.779Z,9.05
2022-11-29T08:06:43.257Z,8.84
2022-11-29T08:09:13.303Z,9.04
2022-11-29T08:11:43.053Z,8.88
2022-11-29T08:14:12.787Z,8.77
2022-11-29T08:16:42.598Z,8.82
2022-11-29T08:19:12.388Z,8.77
2022-11-29T08:21:47.711Z,8.96
2022-11-29T08:24:17.519Z,8.84
2022-11-29T08:26:47.405Z,8.83
2022-11-29T08:29:17.441Z,9.08
2022-11-29T08:31:47.515Z,8.91
2022-11-29T08:34:17.001Z,8.91
2022-11-29T08:36:46.798Z,8.74
2022-11-29T08:42:05.537Z,8.78
2022-11-29T08:44:35.278Z,8.66
2022-11-29T08:47:22.530Z,8.96
2022-11-29T08:50:04.410Z,8.90
2022-11-29T08:52:54.996Z,8.96
2022-11-29T08:55:27.494Z,8.96
2022-11-29T08:58:03.188Z,8.93
2022-11-29T09:00:33.694Z,8.91
2022-11-29T09:03:22.376Z,9.08
2022-11-29T09:05:52.537Z,8.99
2022-11-29T09:08:22.743Z,8.88
2022-11-29T09:10:53.159Z,8.83
2022-11-29T09:13:22.964Z,8.83
2022-11-29T09:15:52.704Z,9.08
2022-11-29T09:18:22.654Z,9.00
2022-11-29T09:20:52.699Z,9.28
2022-11-29T09:23:22.759Z,8.96
2022-11-29T09:25:52.510Z,8.78
2022-11-29T09:28:22.247Z,8.91
2022-11-29T09:30:52.016Z,8.89
2022-11-29T09:33:22.090Z,8.98
2022-11-29T09:35:52.158Z,9.28
2022-11-29T09:38:21.742Z,9.27
2022-11-29T09:40:59.751Z,9.27
2022-11-29T09:43:41.365Z,9.12
2022-11-29T09:46:18.234Z,8.96
2022-11-29T09:48:59.724Z,8.88
2022-11-29T09:51:50.325Z,9.05
2022-11-29T09:54:37.918Z,9.51
2022-11-29T09:57:11.027Z,9.39
2022-11-29T09:59:46.761Z,9.15
2022-11-29T10:02:34.269Z,9.48
2022-11-29T10:05:29.929Z,9.48
2022-11-29T10:08:11.189Z,9.28
2022-11-29T10:10:46.228Z,9.41
2022-11-29T10:13:27.505Z,9.38
2022-11-29T10:16:09.322Z,9.28
2022-11-29T10:18:44.866Z,9.42
2022-11-29T10:21:17.553Z,9.71
2022-11-29T10:23:53.123Z,9.73
2022-11-29T10:26:24.391Z,9.59
2022-11-29T10:28:55.850Z,9.57
2022-11-29T10:31:28.842Z,9.57
2022-11-29T10:34:01.508Z,9.52
2022-11-29T10:36:37.134Z,9.74
2022-11-29T10:39:11.484Z,9.65
2022-11-29T10:41:39.421Z,9.38
2022-11-29T10:44:13.767Z,9.47
2022-11-29T10:46:43.698Z,9.49
2022-11-29T10:49:16.546Z,9.46
2022-11-29T10:51:47.636Z,9.25
2022-11-29T10:54:35.532Z,9.47
2022-11-29T10:57:08.325Z,9.45
2022-11-29T10:59:38.442Z,9.28
2022-11-29T11:02:20.077Z,9.49
2022-11-29T11:04:50.257Z,9.43
2022-11-29T11:07:26.135Z,9.56
2022-11-29T11:09:57.021Z,9.63
2022-11-29T11:12:30.240Z,9.63
2022-11-29T11:15:15.538Z,9.81
2022-11-29T11:18:00.502Z,9.63
2022-11-29T11:20:32.472Z,9.82
2022-11-29T11:23:05.487Z,9.82
2022-11-29T11:25:41.628Z,9.92
2022-11-29T11:28:16.350Z,9.78
2022-11-29T11:30:51.405Z,9.87
2022-11-29T11:33:24.844Z,10.13
2022-11-29T11:36:23.438Z,9.99
2022-11-29T11:39:02.335Z,9.94
2022-11-29T11:41:52.475Z,9.68
2022-11-29T11:44:58.328Z,9.86
2022-11-29T11:47:02.704Z,9.81
2022-11-29T11:49:37.958Z,9.91
2022-11-29T11:52:12.415Z,10.13
2022-11-29T11:54:45.756Z,10.01
2022-11-29T11:57:23.874Z,10.17
2022-11-29T11:59:56.264Z,10.21
2022-11-29T12:02:39.939Z,9.84
2022-11-29T12:05:15.543Z,9.79
2022-11-29T12:08:08.209Z,9.92
2022-11-29T12:10:25.737Z,9.74
2022-11-29T12:12:57.504Z,9.95
2022-11-29T12:15:33.213Z,10.11
2022-11-29T12:18:14.171Z,10.16
2022-11-29T12:20:58.271Z,10.18
2022-11-29T12:23:33.692Z,10.18
2022-11-29T12:26:10.652Z,9.93
2022-11-29T12:28:43.684Z,10.14
2022-11-29T12:31:19.351Z,10.20
2022-11-29T12:34:00.438Z,10.29
2022-11-29T12:36:45.176Z,10.08
2022-11-29T12:39:44.586Z,10.12
2022-11-29T12:42:42.840Z,10.08
2022-11-29T12:45:27.513Z,10.13
2022-11-29T12:48:09.233Z,10.36
2022-11-29T12:50:59.644Z,10.30
2022-11-29T12:53:38.027Z,10.07
2022-11-29T12:56:25.963Z,10.37
2022-11-29T12:59:21.055Z,10.32
2022-11-29T13:02:10.314Z,10.20
2022-11-29T13:04:59.622Z,9.97
2022-11-29T13:07:43.642Z,9.94
2022-11-29T13:10:24.330Z,10.21
2022-11-29T13:13:05.971Z,10.21
2022-11-29T13:15:56.562Z,10.34
2022-11-29T13:18:37.904Z,10.28
2022-11-29T13:21:16.368Z,10.13
2022-11-29T13:24:10.104Z,9.87
2022-11-29T13:26:42.717Z,9.87
2022-11-29T13:29:19.573Z,10.14
2022-11-29T13:31:49.881Z,10.23
2022-11-29T13:34:25.236Z,10.31
2022-11-29T13:37:10.107Z,9.82
2022-11-29T13:39:42.638Z,9.93
2022-11-29T13:42:15.423Z,10.09
2022-11-29T13:45:07.474Z,10.09
2022-11-29T13:47:43.103Z,10.09
2022-11-29T13:50:43.609Z,10.11
2022-11-29T13:53:25.124Z,10.18
2022-11-29T13:56:03.076Z,10.18
2022-11-29T13:58:40.363Z,10.01
2022-11-29T14:01:13.551Z,9.93
2022-11-29T14:03:46.281Z,9.85
2022-11-29T14:06:20.886Z,10.14
2022-11-29T14:09:18.395Z,9.93
2022-11-29T14:11:39.488Z,9.93
2022-11-29T14:14:18.223Z,9.70
2022-11-29T14:16:53.859Z,10.06
2022-11-29T14:19:35.463Z,9.87
2022-11-29T14:22:19.077Z,10.04
2022-11-29T14:25:00.899Z,10.05
2022-11-29T14:27:33.740Z,9.83
2022-11-29T14:30:04.028Z,9.97
2022-11-29T14:32:46.508Z,9.64
2022-11-29T14:35:24.510Z,9.61
2022-11-29T14:38:06.126Z,9.77
2022-11-29T14:40:44.514Z,9.63
2022-11-29T14:43:23.407Z,9.57
2022-11-29T14:46:14.392Z,9.80
2022-11-29T14:48:47.304Z,9.67
2022-11-29T14:51:19.791Z,9.82
2022-11-29T14:53:55.371Z,9.56
2022-11-29T14:56:38.070Z,9.78
2022-11-29T14:59:43.634Z,9.67
2022-11-29T15:02:31.685Z,9.66
2022-11-29T15:05:19.958Z,9.54
2022-11-29T15:07:55.452Z,9.90
2022-11-29T15:10:28.337Z,9.79
2022-11-29T15:13:01.290Z,9.53
2022-11-29T15:15:37.196Z,9.53
2022-11-29T15:18:19.302Z,9.48
2022-11-29T15:21:13.120Z,9.24
2022-11-29T15:23:43.975Z,9.47
2022-11-29T15:26:21.540Z,9.53
2022-11-29T15:28:51.278Z,9.49
2022-11-29T15:31:22.576Z,9.54
2022-11-29T15:33:52.305Z,9.56
2022-11-29T15:36:24.990Z,9.53
2022-11-29T15:38:58.759Z,9.62
2022-11-29T15:41:30.937Z,9.48
2022-11-29T15:44:03.498Z,9.46
2022-11-29T15:46:35.295Z,9.49
2022-11-29T15:49:18.757Z,9.28
2022-11-29T15:51:51.553Z,9.38
2022-11-29T15:54:36.407Z,9.45
2022-11-29T15:57:17.609Z,9.32
2022-11-29T15:59:53.108Z,9.20
2022-11-29T16:02:29.111Z,9.34
2022-11-29T16:05:13.616Z,9.45
2022-11-29T16:07:45.121Z,9.09
2022-11-29T16:10:19.619Z,9.22
2022-11-29T16:13:00.693Z,9.33
2022-11-29T16:15:33.479Z,9.28
2022-11-29T16:18:12.307Z,9.21
2022-11-29T16:20:42.326Z,9.21
2022-11-29T16:23:14.764Z,9.34
2022-11-29T16:26:03.966Z,9.24
2022-11-29T16:28:36.702Z,9.24
2022-11-29T16:31:06.883Z,9.26
2022-11-29T16:33:38.647Z,8.99
2022-11-29T16:36:19.997Z,8.90
2022-11-29T16:38:52.598Z,9.07
2022-11-29T16:41:34.323Z,9.09
2022-11-29T16:44:05.979Z,9.16
2022-11-29T16:46:40.351Z,9.22
2022-11-29T16:49:33.677Z,9.29
2022-11-29T16:52:05.042Z,9.49
2022-11-29T16:54:34.863Z,9.43
2022-11-29T16:57:07.197Z,8.99
2022-11-29T16:59:38.507Z,9.27
2022-11-29T17:02:13.909Z,9.44
2022-11-29T17:04:44.486Z,9.16
2022-11-29T17:07:23.432Z,9.16
2022-11-29T17:09:53.436Z,9.21
2022-11-29T17:12:23.180Z,9.27
2022-11-29T17:14:53.236Z,9.26
2022-11-29T17:17:22.989Z,9.32
2022-11-29T17:19:53.010Z,9.45
2022-11-29T17:22:22.758Z,9.35
2022-11-29T17:24:53.419Z,9.35
2022-11-29T17:27:23.804Z,9.18
2022-11-29T17:29:53.837Z,9.28
2022-11-29T17:32:26.790Z,9.36
2022-11-29T17:34:55.378Z,9.24
2022-11-29T17:37:25.549Z,8.87
2022-11-29T17:39:56.560Z,9.06
2022-11-29T17:42:26.554Z,9.05
2022-11-29T17:44:56.670Z,9.13
2022-11-29T17:47:26.103Z,8.89
2022-11-29T17:49:56.237Z,8.79
2022-11-29T17:52:25.963Z,8.87
2022-11-29T17:54:55.988Z,9.07
2022-11-29T17:57:25.727Z,9.28
2022-11-29T17:59:55.854Z,9.28
2022-11-29T18:02:25.612Z,9.24
2022-11-29T18:04:55.692Z,9.25
2022-11-29T18:07:25.542Z,9.23
2022-11-29T18:09:55.545Z,9.36
2022-11-29T18:12:25.581Z,9.37
2022-11-29T18:14:55.337Z,9.37
2022-11-29T18:17:25.084Z,9.44
2022-11-29T18:19:54.836Z,9.28
2022-11-29T18:22:24.605Z,9.28
2022-11-29T18:25:05.402Z,9.27
2022-11-29T18:27:26.064Z,9.41
2022-11-29T18:29:55.808Z,9.43
2022-11-29T18:32:25.617Z,9.43
2022-11-29T18:34:55.737Z,9.60
2022-11-29T18:37:54.455Z,9.18
2022-11-29T18:39:57.071Z,9.13
2022-11-29T18:42:26.811Z,9.00
2022-11-29T18:44:58.806Z,9.06
2022-11-29T18:47:29.599Z,9.09
2022-11-29T18:49:59.671Z,8.84
2022-11-29T18:52:30.055Z,8.84
2022-11-29T18:54:59.794Z,9.06
2022-11-29T18:57:29.564Z,8.79
2022-11-29T18:59:59.312Z,8.91
2022-11-29T19:02:28.819Z,8.90
2022-11-29T19:04:58.607Z,8.69
2022-11-29T19:07:29.269Z,8.62
2022-11-29T19:09:59.117Z,8.48
2022-11-29T19:12:29.124Z,8.62
2022-11-29T19:14:58.616Z,8.43
2022-11-29T19:17:29.424Z,8.61
2022-11-29T19:19:59.368Z,8.44
2022-11-29T19:22:29.884Z,8.44
2022-11-29T19:25:00.597Z,8.64
2022-11-29T19:27:30.319Z,8.66
2022-11-29T19:30:00.086Z,8.64
2022-11-29T19:32:29.904Z,8.48
2022-11-29T19:34:59.918Z,8.55
2022-11-29T19:37:29.659Z,8.37
2022-11-29T19:39:59.386Z,8.40
2022-11-29T19:42:28.847Z,8.57
2022-11-29T19:45:16.641Z,8.29
2022-11-29T19:47:30.038Z,8.64
2022-11-29T19:50:02.653Z,8.52
2022-11-29T19:52:31.360Z,8.69
2022-11-29T19:55:01.115Z,8.66
2022-11-29T19:57:30.844Z,8.70
2022-11-29T20:00:00.700Z,8.74
2022-11-29T20:02:32.307Z,8.77
2022-11-29T20:05:02.201Z,8.77
2022-11-29T20:07:32.020Z,8.75
2022-11-29T20:10:01.755Z,8.75
2022-11-29T20:12:32.714Z,8.71
2022-11-29T20:15:02.468Z,8.49
2022-11-29T20:17:32.589Z,8.54
2022-11-29T20:20:02.439Z,8.61
2022-11-29T20:22:32.253Z,8.38
2022-11-29T20:25:01.991Z,8.57
2022-11-29T20:27:32.027Z,8.49
2022-11-29T20:30:01.779Z,8.67
2022-11-29T20:32:31.317Z,8.67
2022-11-29T20:35:02.402Z,8.87
2022-11-29T20:37:35.933Z,8.80
2022-11-29T20:40:08.653Z,8.66
2022-11-29T20:42:41.985Z,8.41
2022-11-29T20:45:14.344Z,8.59
2022-11-29T20:47:50.323Z,8.56
2022-11-29T20:50:23.796Z,8.68
2022-11-29T20:53:02.721Z,8.68
2022-11-29T20:55:32.596Z,8.36
2022-11-29T20:58:02.414Z,8.50
2022-11-29T21:00:32.155Z,8.50
2022-11-29T21:03:01.988Z,8.50
2022-11-29T21:05:31.738Z,8.60
2022-11-29T21:08:02.334Z,8.74
2022-11-29T21:10:32.149Z,8.68
2022-11-29T21:13:02.239Z,8.79
2022-11-29T21:15:32.327Z,8.72
2022-11-29T21:18:02.317Z,8.70
2022-11-29T21:20:32.371Z,8.52
2022-11-29T21:23:05.132Z,8.76
2022-11-29T21:25:46.506Z,8.67
2022-11-29T21:28:17.706Z,8.68
2022-11-29T21:30:47.591Z,8.68
2022-11-29T21:33:17.589Z,8.59
2022-11-29T21:35:48.055Z,8.51
2022-11-29T21:38:21.134Z,8.47
2022-11-29T21:40:50.889Z,8.72
2022-11-29T21:43:22.799Z,8.91
2022-11-29T21:45:52.074Z,8.80
2022-11-29T21:48:37.712Z,8.80
2022-11-29T21:51:09.088Z,8.90
2022-11-29T21:53:40.282Z,9.19
2022-11-29T21:56:12.091Z,9.08
2022-11-29T21:58:42.163Z,8.91
2022-11-29T22:01:14.899Z,8.98
2022-11-29T22:03:45.034Z,9.14
2022-11-29T22:06:23.209Z,9.22
2022-11-29T22:08:52.948Z,8.93
2022-11-29T22:11:34.707Z,8.81
2022-11-29T22:14:15.000Z,9.05
2022-11-29T22:16:47.836Z,9.15
2022-11-29T22:19:29.435Z,9.15
2022-11-29T22:22:04.600Z,9.24
2022-11-29T22:24:36.565Z,9.24
2022-11-29T22:27:06.557Z,8.96
2022-11-29T22:29:36.372Z,9.17
2022-11-29T22:32:06.753Z,9.26
2022-11-29T22:34:36.483Z,9.27
2022-11-29T22:37:06.237Z,9.32
2022-11-29T22:39:35.720Z,9.44
2022-11-29T22:42:06.656Z,9.52
2022-11-29T22:44:36.412Z,9.37
2022-11-29T22:47:06.212Z,9.36
2022-11-29T22:49:35.772Z,9.11
2022-11-29T22:52:06.733Z,9.33
2022-11-29T22:54:36.460Z,9.48
2022-11-29T22:57:06.234Z,9.58
2022-11-29T22:59:36.332Z,9.49
2022-11-29T23:02:07.119Z,9.51
2022-11-29T23:04:37.181Z,9.61
2022-11-29T23:07:07.230Z,9.62
2022-11-29T23:09:36.670Z,9.77
2022-11-29T23:12:08.086Z,9.83
2022-11-29T23:14:37.836Z,9.88
2022-11-29T23:17:07.573Z,9.46
2022-11-29T23:19:37.306Z,9.56
2022-11-29T23:22:08.484Z,9.68
2022-11-29T23:24:39.931Z,9.77
2022-11-29T23:27:09.748Z,9.92
2022-11-29T23:29:39.467Z,9.99
2022-11-29T23:32:09.587Z,9.98
2022-11-29T23:34:39.367Z,10.03
2022-11-29T23:37:09.630Z,9.88
2022-11-29T23:39:39.362Z,9.84
2022-11-29T23:42:09.120Z,9.88
2022-11-29T23:44:38.882Z,9.99
2022-11-29T23:47:08.616Z,10.18
2022-11-29T23:49:39.743Z,9.93
2022-11-29T23:52:10.493Z,9.95
2022-11-29T23:54:40.234Z,9.95
2022-11-29T23:57:09.982Z,10.20
2022-11-29T23:59:39.725Z,9.96
